createdAt,value
2019-05-16T00:01:48.757Z,11.90
2019-05-16T00:04:18.389Z,12.20
2019-05-16T00:06:48.180Z,6.62
2019-05-16T00:09:18.296Z,9.18
2019-05-16T00:11:48.787Z,8.15
2019-05-16T00:14:18.819Z,8.85
2019-05-16T00:16:48.523Z,9.10
2019-05-16T00:19:18.209Z,10.43
2019-05-16T00:21:48.827Z,12.03
2019-05-16T00:24:18.721Z,10.55
2019-05-16T00:26:48.298Z,9.53
2019-05-16T00:29:18.367Z,9.38
2019-05-16T00:31:48.682Z,9.70
2019-05-16T00:34:18.883Z,9.35
2019-05-16T00:36:48.868Z,11.20
2019-05-16T00:39:18.820Z,7.60
2019-05-16T00:41:48.357Z,11.48
2019-05-16T00:44:18.944Z,9.25
2019-05-16T00:46:48.721Z,7.42
2019-05-16T00:49:18.707Z,7.53
2019-05-16T00:51:48.232Z,9.68
2019-05-16T00:54:18.620Z,8.63
2019-05-16T00:56:48.778Z,8.78
2019-05-16T00:59:19.161Z,10.58
2019-05-16T01:01:50.018Z,12.93
2019-05-16T01:04:19.896Z,7.53
2019-05-16T01:06:49.334Z,7.72
2019-05-16T01:09:18.955Z,12.73
2019-05-16T01:11:48.736Z,11.38
2019-05-16T01:14:18.211Z,11.57
2019-05-16T01:16:48.796Z,9.83
2019-05-16T01:19:18.750Z,9.15
2019-05-16T01:21:48.447Z,11.30
2019-05-16T01:24:18.841Z,7.78
2019-05-16T01:26:48.561Z,9.03
2019-05-16T01:29:18.840Z,9.80
2019-05-16T01:31:48.543Z,10.25
2019-05-16T01:34:18.210Z,7.65
2019-05-16T01:36:48.579Z,6.87
2019-05-16T01:39:18.377Z,9.28
2019-05-16T01:41:48.167Z,9.15
2019-05-16T01:44:18.303Z,8.20
2019-05-16T01:46:48.174Z,12.10
2019-05-16T01:49:18.791Z,8.78
2019-05-16T01:51:48.557Z,8.60
2019-05-16T01:54:18.123Z,7.80
2019-05-16T01:56:48.052Z,8.53
2019-05-16T01:59:18.123Z,8.53
2019-05-16T02:01:48.436Z,7.45
2019-05-16T02:04:18.486Z,11.60
2019-05-16T02:06:53.758Z,7.97
2019-05-16T02:09:19.150Z,8.60
2019-05-16T02:11:48.582Z,9.55
2019-05-16T02:14:18.013Z,7.28
2019-05-16T02:16:47.787Z,13.05
2019-05-16T02:19:18.803Z,6.53
2019-05-16T02:21:50.628Z,7.33
2019-05-16T02:24:19.457Z,6.53
2019-05-16T02:26:52.300Z,8.88
2019-05-16T02:29:20.653Z,7.55
2019-05-16T02:31:51.312Z,7.28
2019-05-16T02:34:22.014Z,8.35
2019-05-16T02:37:10.707Z,7.35
2019-05-16T02:39:22.735Z,6.83
2019-05-16T02:41:52.215Z,10.98
2019-05-16T02:44:24.755Z,5.97
2019-05-16T02:46:52.806Z,7.08
2019-05-16T02:49:22.250Z,5.87
2019-05-16T02:51:51.743Z,7.50
2019-05-16T02:54:21.952Z,8.48
2019-05-16T02:56:51.610Z,10.75
2019-05-16T02:59:21.069Z,7.28
2019-05-16T03:01:52.153Z,8.68
2019-05-16T03:04:22.035Z,8.80
2019-05-16T03:06:52.106Z,11.63
2019-05-16T03:09:21.648Z,10.45
2019-05-16T03:11:52.110Z,10.93
2019-05-16T03:14:22.388Z,11.75
2019-05-16T03:16:52.667Z,11.43
2019-05-16T03:19:24.131Z,11.57
2019-05-16T03:21:55.495Z,11.50
2019-05-16T03:24:24.943Z,9.78
2019-05-16T03:26:54.403Z,9.93
2019-05-16T03:29:23.853Z,7.78
2019-05-16T03:31:54.752Z,7.45
2019-05-16T03:34:25.941Z,12.07
2019-05-16T03:36:55.593Z,7.75
2019-05-16T03:39:25.039Z,13.13
2019-05-16T03:41:54.455Z,13.68
2019-05-16T03:44:23.892Z,12.18
2019-05-16T03:46:53.670Z,10.60
2019-05-16T03:49:24.243Z,8.43
2019-05-16T03:51:53.693Z,10.30
2019-05-16T03:54:23.148Z,8.45
2019-05-16T03:56:52.577Z,10.32
2019-05-16T03:59:22.125Z,8.80
2019-05-16T04:01:51.805Z,11.43
2019-05-16T04:04:21.366Z,10.25
2019-05-16T04:06:50.959Z,10.35
2019-05-16T04:09:21.100Z,12.07
2019-05-16T04:11:51.055Z,11.15
2019-05-16T04:14:21.470Z,14.20
2019-05-16T04:16:51.345Z,10.43
2019-05-16T04:19:21.205Z,12.00
2019-05-16T04:21:51.344Z,11.28
2019-05-16T04:24:21.658Z,12.65
2019-05-16T04:26:51.837Z,13.60
2019-05-16T04:29:21.477Z,11.68
2019-05-16T04:31:51.166Z,12.23
2019-05-16T04:34:20.906Z,12.05
2019-05-16T04:36:51.410Z,14.18
2019-05-16T04:39:21.230Z,15.53
2019-05-16T04:41:51.071Z,15.40
2019-05-16T04:44:21.339Z,12.60
2019-05-16T04:46:51.250Z,13.98
2019-05-16T04:49:21.389Z,11.68
2019-05-16T04:51:51.913Z,11.38
2019-05-16T04:54:21.811Z,10.98
2019-05-16T04:56:51.641Z,11.48
2019-05-16T04:59:21.260Z,10.40
2019-05-16T05:01:51.364Z,10.72
2019-05-16T05:04:21.492Z,10.08
2019-05-16T05:06:51.396Z,8.83
2019-05-16T05:09:21.125Z,7.58
2019-05-16T05:11:51.969Z,8.65
2019-05-16T05:14:21.849Z,11.03
2019-05-16T05:16:54.198Z,6.92
2019-05-16T05:19:23.626Z,10.93
2019-05-16T05:21:53.068Z,11.93
2019-05-16T05:24:22.516Z,8.38
2019-05-16T05:26:51.949Z,10.32
2019-05-16T05:29:21.399Z,9.65
2019-05-16T05:31:54.938Z,8.33
2019-05-16T05:34:22.130Z,9.75
2019-05-16T05:36:51.597Z,6.62
2019-05-16T05:39:21.052Z,5.37
2019-05-16T05:41:50.622Z,5.47
2019-05-16T05:44:20.451Z,6.08
2019-05-16T05:46:51.157Z,7.10
2019-05-16T05:49:22.286Z,7.42
2019-05-16T05:51:51.716Z,6.40
2019-05-16T05:54:21.168Z,4.65
2019-05-16T05:56:50.598Z,5.85
2019-05-16T05:59:20.341Z,5.22
2019-05-16T06:01:52.826Z,5.65
2019-05-16T06:04:22.265Z,6.35
2019-05-16T06:06:51.719Z,4.53
2019-05-16T06:09:28.399Z,8.18
2019-05-16T06:11:52.403Z,6.58
2019-05-16T06:14:21.840Z,4.67
2019-05-16T06:16:51.281Z,11.33
2019-05-16T06:19:20.736Z,4.47
2019-05-16T06:21:50.453Z,10.72
2019-05-16T06:24:20.344Z,5.92
2019-05-16T06:26:50.411Z,4.97
2019-05-16T06:29:20.516Z,7.50
2019-05-16T06:31:49.996Z,6.37
2019-05-16T06:34:20.982Z,5.80
2019-05-16T06:36:51.035Z,3.70
2019-05-16T06:39:20.585Z,3.37
2019-05-16T06:41:50.846Z,6.28
2019-05-16T06:44:20.670Z,6.53
2019-05-16T06:46:59.762Z,5.22
2019-05-16T06:49:21.377Z,3.62
2019-05-16T06:51:51.535Z,7.58
2019-05-16T06:54:21.323Z,5.47
2019-05-16T06:56:51.155Z,4.85
2019-05-16T06:59:20.680Z,6.22
2019-05-16T07:01:50.214Z,3.17
2019-05-16T07:04:20.166Z,3.05
2019-05-16T07:06:58.621Z,2.08
2019-05-16T07:09:20.960Z,3.22
2019-05-16T07:11:50.556Z,2.15
2019-05-16T07:14:22.799Z,1.60
2019-05-16T07:16:51.425Z,5.30
2019-05-16T07:19:20.905Z,2.33
2019-05-16T07:21:50.799Z,3.17
2019-05-16T07:24:20.403Z,4.78
2019-05-16T07:26:50.290Z,4.35
2019-05-16T07:29:20.337Z,2.52
2019-05-16T07:31:52.359Z,4.60
2019-05-16T07:34:21.052Z,2.70
2019-05-16T07:36:50.525Z,3.33
2019-05-16T07:39:20.138Z,3.35
2019-05-16T07:41:50.850Z,3.40
2019-05-16T07:44:20.948Z,3.05
2019-05-16T07:46:51.558Z,4.30
2019-05-16T07:49:21.172Z,1.62
2019-05-16T07:51:50.637Z,4.65
2019-05-16T07:54:21.410Z,6.42
2019-05-16T07:56:59.419Z,3.58
2019-05-16T07:59:22.193Z,3.33
2019-05-16T08:01:54.175Z,2.85
2019-05-16T08:04:22.807Z,2.42
2019-05-16T08:06:52.246Z,1.65
2019-05-16T08:09:21.681Z,2.17
2019-05-16T08:11:51.150Z,3.00
2019-05-16T08:14:21.415Z,4.10
2019-05-16T08:16:51.044Z,2.33
2019-05-16T08:19:24.935Z,2.25
2019-05-16T08:21:51.672Z,3.05
2019-05-16T08:24:23.327Z,3.58
2019-05-16T08:26:52.773Z,5.75
2019-05-16T08:29:22.242Z,2.62
2019-05-16T08:31:52.744Z,1.57
2019-05-16T08:34:22.593Z,1.90
2019-05-16T08:36:52.118Z,3.17
2019-05-16T08:39:21.686Z,3.35
2019-05-16T08:44:22.409Z,3.02
2019-05-16T08:49:23.162Z,5.28
2019-05-16T08:50:05.961Z,3.35
2019-05-16T08:51:53.217Z,2.50
2019-05-16T08:54:22.942Z,5.40
2019-05-16T08:56:52.402Z,1.80
2019-05-16T08:59:22.032Z,3.35
2019-05-16T09:04:24.587Z,3.55
2019-05-16T09:06:53.893Z,2.90
2019-05-16T09:09:38.135Z,1.90
2019-05-16T09:10:15.892Z,1.65
2019-05-16T09:10:31.813Z,5.40
2019-05-16T09:11:57.235Z,1.80
2019-05-16T09:14:27.640Z,2.60
2019-05-16T09:16:57.960Z,1.72
2019-05-16T09:19:27.837Z,2.40
2019-05-16T09:21:58.171Z,3.37
2019-05-16T09:24:27.679Z,1.40
2019-05-16T09:26:57.941Z,2.02
2019-05-16T09:29:27.648Z,1.47
2019-05-16T09:32:16.424Z,2.27
2019-05-16T09:34:28.559Z,2.62
2019-05-16T09:37:01.752Z,5.00
2019-05-16T09:39:29.203Z,1.80
2019-05-16T09:41:58.985Z,3.45
2019-05-16T09:44:28.468Z,1.87
2019-05-16T09:46:57.914Z,1.60
2019-05-16T09:49:29.250Z,1.75
2019-05-16T09:51:58.777Z,2.08
2019-05-16T09:54:28.248Z,2.10
2019-05-16T09:56:57.668Z,2.22
2019-05-16T09:59:27.129Z,3.50
2019-05-16T10:01:57.277Z,5.65
2019-05-16T10:04:26.925Z,2.60
2019-05-16T10:06:57.270Z,2.60
2019-05-16T10:09:40.708Z,1.80
2019-05-16T10:12:08.171Z,4.37
2019-05-16T10:14:29.251Z,2.60
2019-05-16T10:16:58.685Z,2.60
2019-05-16T10:19:28.149Z,4.42
2019-05-16T10:22:00.162Z,6.42
2019-05-16T10:24:28.767Z,2.98
2019-05-16T10:26:58.226Z,2.62
2019-05-16T10:29:27.722Z,3.45
2019-05-16T10:31:57.164Z,2.65
2019-05-16T10:34:26.802Z,2.75
2019-05-16T10:36:57.517Z,3.47
2019-05-16T10:39:27.174Z,6.78
2019-05-16T10:41:57.366Z,3.55
2019-05-16T10:44:28.230Z,5.35
2019-05-16T10:46:58.060Z,3.92
2019-05-16T10:49:36.797Z,2.20
2019-05-16T10:51:58.708Z,4.65
2019-05-16T10:54:28.230Z,1.67
2019-05-16T10:56:58.057Z,5.53
2019-05-16T11:01:59.620Z,2.37
2019-05-16T11:04:48.379Z,6.55
2019-05-16T11:07:00.603Z,3.98
2019-05-16T11:09:30.039Z,2.52
2019-05-16T11:11:59.481Z,2.80
2019-05-16T11:14:29.685Z,1.67
2019-05-16T11:16:59.132Z,3.62
2019-05-16T11:19:28.603Z,3.35
2019-05-16T11:21:59.683Z,2.90
2019-05-16T11:24:29.491Z,3.20
2019-05-16T11:26:59.042Z,2.27
2019-05-16T11:29:28.496Z,3.45
2019-05-16T11:31:57.936Z,2.83
2019-05-16T11:34:27.393Z,3.37
2019-05-16T11:36:57.064Z,2.85
2019-05-16T11:39:26.558Z,2.22
2019-05-16T11:41:57.130Z,2.25
2019-05-16T11:44:28.525Z,5.20
2019-05-16T11:46:57.881Z,2.25
2019-05-16T11:49:27.713Z,2.37
2019-05-16T11:51:57.859Z,3.67
2019-05-16T11:54:27.376Z,3.27
2019-05-16T11:56:57.112Z,3.47
2019-05-16T11:59:26.657Z,5.40
2019-05-16T12:01:56.109Z,3.72
2019-05-16T12:04:27.913Z,3.70
2019-05-16T12:06:57.445Z,2.12
2019-05-16T12:09:33.517Z,2.47
2019-05-16T12:12:03.856Z,1.95
2019-05-16T12:14:29.237Z,2.42
2019-05-16T12:16:58.701Z,5.83
2019-05-16T12:19:34.652Z,7.30
2019-05-16T12:21:59.387Z,2.58
2019-05-16T12:24:36.378Z,4.53
2019-05-16T12:27:00.747Z,2.95
2019-05-16T12:29:30.418Z,3.05
2019-05-16T12:32:02.950Z,2.05
2019-05-16T12:34:31.024Z,1.98
2019-05-16T12:37:00.495Z,2.65
2019-05-16T12:39:29.953Z,1.98
2019-05-16T12:42:00.091Z,2.85
2019-05-16T12:44:29.719Z,2.55
2019-05-16T12:46:59.178Z,2.02
2019-05-16T12:49:29.073Z,2.40
2019-05-16T12:51:59.188Z,2.42
2019-05-16T12:54:28.622Z,3.22
2019-05-16T12:56:58.242Z,6.08
2019-05-16T12:59:27.701Z,4.28
2019-05-16T13:01:57.741Z,7.92
2019-05-16T13:04:28.181Z,6.62
2019-05-16T13:06:57.988Z,6.80
2019-05-16T13:09:27.484Z,3.95
2019-05-16T13:11:57.751Z,5.08
2019-05-16T13:14:27.984Z,5.42
2019-05-16T13:16:57.560Z,2.00
2019-05-16T13:19:33.083Z,3.15
2019-05-16T13:21:58.267Z,6.62
2019-05-16T13:24:28.071Z,2.45
2019-05-16T13:26:57.688Z,6.05
2019-05-16T13:29:27.591Z,3.45
2019-05-16T13:31:57.172Z,3.30
2019-05-16T13:34:28.058Z,4.05
2019-05-16T13:36:58.095Z,3.58
2019-05-16T13:39:27.760Z,5.20
2019-05-16T13:41:58.725Z,5.50
2019-05-16T13:44:28.236Z,6.15
2019-05-16T13:46:57.669Z,5.05
2019-05-16T13:49:27.113Z,3.62
2019-05-16T13:51:56.548Z,4.87
2019-05-16T13:54:26.927Z,5.28
2019-05-16T13:56:58.703Z,4.37
2019-05-16T13:59:28.412Z,6.58
2019-05-16T14:01:57.885Z,5.45
2019-05-16T14:04:27.326Z,3.65
2019-05-16T14:06:58.962Z,5.30
2019-05-16T14:09:28.011Z,5.10
2019-05-16T14:11:57.452Z,4.70
2019-05-16T14:14:37.351Z,7.72
2019-05-16T14:16:58.148Z,7.12
2019-05-16T14:19:27.608Z,7.28
2019-05-16T14:21:57.204Z,7.00
2019-05-16T14:24:28.223Z,7.60
2019-05-16T14:26:57.736Z,6.25
2019-05-16T14:29:27.928Z,8.23
2019-05-16T14:31:57.439Z,7.33
2019-05-16T14:34:27.852Z,5.87
2019-05-16T14:36:57.881Z,4.90
2019-05-16T14:42:07.215Z,5.90
2019-05-16T14:44:58.429Z,8.58
2019-05-16T14:47:07.841Z,5.53
2019-05-16T14:49:37.530Z,4.12
2019-05-16T14:52:07.044Z,6.80
2019-05-16T14:54:37.766Z,6.25
2019-05-16T14:57:07.358Z,6.80
2019-05-16T14:59:36.826Z,6.17
2019-05-16T15:02:07.041Z,5.28
2019-05-16T15:04:37.592Z,10.63
2019-05-16T15:07:07.221Z,7.50
2019-05-16T15:09:38.112Z,7.90
2019-05-16T15:12:07.708Z,6.12
2019-05-16T15:14:37.655Z,5.12
2019-05-16T15:17:07.242Z,5.45
2019-05-16T15:19:36.730Z,7.75
2019-05-16T15:22:08.099Z,6.83
2019-05-16T15:24:37.664Z,5.35
2019-05-16T15:27:08.298Z,4.28
2019-05-16T15:29:38.047Z,6.35
2019-05-16T15:32:07.495Z,8.70
2019-05-16T15:34:38.019Z,3.58
2019-05-16T15:37:08.182Z,7.33
2019-05-16T15:39:37.760Z,6.00
2019-05-16T15:42:08.212Z,5.80
2019-05-16T15:44:37.922Z,8.35
2019-05-16T15:47:08.155Z,8.43
2019-05-16T15:49:37.952Z,9.13
2019-05-16T15:52:07.814Z,6.08
2019-05-16T15:54:37.944Z,14.93
2019-05-16T15:57:07.379Z,5.53
2019-05-16T15:59:37.525Z,6.60
2019-05-16T16:02:07.467Z,6.50
2019-05-16T16:04:37.457Z,6.55
2019-05-16T16:07:07.786Z,8.00
2019-05-16T16:09:38.014Z,9.68
2019-05-16T16:12:10.579Z,6.87
2019-05-16T16:14:38.865Z,7.62
2019-05-16T16:17:08.657Z,5.90
2019-05-16T16:19:38.086Z,4.67
2019-05-16T16:22:07.949Z,6.92
2019-05-16T16:24:37.459Z,4.90
2019-05-16T16:27:07.385Z,3.80
2019-05-16T16:29:37.159Z,6.10
2019-05-16T16:32:06.839Z,6.03
2019-05-16T16:34:36.858Z,7.15
2019-05-16T16:37:07.514Z,6.62
2019-05-16T16:39:37.913Z,8.95
2019-05-16T16:42:07.802Z,6.90
2019-05-16T16:44:37.265Z,8.38
2019-05-16T16:47:06.916Z,9.00
2019-05-16T16:49:39.883Z,11.38
2019-05-16T16:52:07.815Z,12.13
2019-05-16T16:54:37.353Z,14.07
2019-05-16T16:57:07.755Z,9.93
2019-05-16T16:59:37.887Z,9.68
2019-05-16T17:02:07.364Z,10.25
2019-05-16T17:04:38.663Z,7.95
2019-05-16T17:07:08.040Z,7.87
2019-05-16T17:09:37.483Z,15.60
2019-05-16T17:12:06.979Z,13.70
2019-05-16T17:14:37.007Z,11.22
2019-05-16T17:17:07.176Z,13.60
2019-05-16T17:19:36.842Z,13.98
2019-05-16T17:22:16.966Z,9.98
2019-05-16T17:24:37.687Z,10.70
2019-05-16T17:27:07.757Z,12.37
2019-05-16T17:29:37.381Z,11.38
2019-05-16T17:32:10.215Z,13.70
2019-05-16T17:34:37.991Z,11.53
2019-05-16T17:37:09.709Z,13.13
2019-05-16T17:39:38.766Z,14.00
2019-05-16T17:42:08.226Z,8.18
2019-05-16T17:44:37.671Z,7.78
2019-05-16T17:47:07.269Z,11.80
2019-05-16T17:49:37.227Z,9.80
2019-05-16T17:52:07.085Z,11.25
2019-05-16T17:54:37.320Z,7.67
2019-05-16T17:57:07.480Z,6.33
2019-05-16T17:59:37.893Z,8.48
2019-05-16T18:02:07.601Z,7.37
2019-05-16T18:04:37.659Z,11.05
2019-05-16T18:07:08.206Z,6.42
2019-05-16T18:09:37.670Z,6.97
2019-05-16T18:12:07.093Z,4.10
2019-05-16T18:14:37.319Z,6.50
2019-05-16T18:17:07.702Z,4.28
2019-05-16T18:19:37.441Z,6.17
2019-05-16T18:22:06.876Z,5.95
2019-05-16T18:24:36.949Z,5.25
2019-05-16T18:27:06.879Z,8.43
2019-05-16T18:29:36.602Z,5.22
2019-05-16T18:32:07.023Z,6.30
2019-05-16T18:34:37.676Z,5.08
2019-05-16T18:37:07.195Z,5.35
2019-05-16T18:39:37.005Z,6.37
2019-05-16T18:42:06.733Z,2.65
2019-05-16T18:44:36.611Z,5.25
2019-05-16T18:47:10.424Z,3.50
2019-05-16T18:49:37.638Z,7.92
2019-05-16T18:52:07.065Z,5.00
2019-05-16T18:54:37.637Z,5.58
2019-05-16T18:57:07.287Z,7.70
2019-05-16T18:59:36.992Z,4.00
2019-05-16T19:02:10.377Z,8.98
2019-05-16T19:04:39.144Z,5.25
2019-05-16T19:07:08.669Z,4.65
2019-05-16T19:09:38.104Z,4.83
2019-05-16T19:12:07.570Z,6.50
2019-05-16T19:14:37.073Z,6.97
2019-05-16T19:17:20.666Z,9.78
2019-05-16T19:19:37.826Z,6.58
2019-05-16T19:22:07.348Z,6.90
2019-05-16T19:24:36.798Z,6.20
2019-05-16T19:27:06.676Z,9.20
2019-05-16T19:29:36.941Z,5.55
2019-05-16T19:32:06.798Z,6.78
2019-05-16T19:34:36.373Z,5.37
2019-05-16T19:37:06.978Z,6.72
2019-05-16T19:39:37.182Z,8.98
2019-05-16T19:42:06.814Z,4.92
2019-05-16T19:44:37.233Z,6.00
2019-05-16T19:47:07.229Z,7.28
2019-05-16T19:49:37.157Z,7.42
2019-05-16T19:52:07.299Z,5.90
2019-05-16T19:54:36.983Z,9.13
2019-05-16T19:57:07.214Z,5.28
2019-05-16T19:59:36.969Z,11.63
2019-05-16T20:02:07.728Z,7.90
2019-05-16T20:04:37.450Z,10.60
2019-05-16T20:07:07.600Z,7.37
2019-05-16T20:09:37.054Z,8.05
2019-05-16T20:12:07.696Z,8.30
2019-05-16T20:14:37.333Z,5.08
2019-05-16T20:17:07.337Z,6.87
2019-05-16T20:19:37.050Z,6.58
2019-05-16T20:22:07.643Z,4.05
2019-05-16T20:24:37.327Z,6.28
2019-05-16T20:27:08.025Z,9.48
2019-05-16T20:29:37.808Z,7.40
2019-05-16T20:32:07.968Z,7.20
2019-05-16T20:34:37.782Z,4.78
2019-05-16T20:37:09.361Z,6.92
2019-05-16T20:39:38.446Z,6.92
2019-05-16T20:42:07.913Z,7.97
2019-05-16T20:44:37.465Z,9.33
2019-05-16T20:47:07.341Z,4.80
2019-05-16T20:49:37.388Z,6.53
2019-05-16T20:52:07.201Z,9.93
2019-05-16T20:54:37.696Z,6.87
2019-05-16T20:57:07.538Z,4.22
2019-05-16T20:59:37.002Z,5.62
2019-05-16T21:02:06.985Z,4.67
2019-05-16T21:04:37.485Z,6.12
2019-05-16T21:07:10.729Z,9.00
2019-05-16T21:09:38.185Z,4.95
2019-05-16T21:12:08.377Z,6.78
2019-05-16T21:14:37.949Z,10.65
2019-05-16T21:17:07.421Z,6.53
2019-05-16T21:19:39.233Z,9.03
2019-05-16T21:22:08.112Z,6.40
2019-05-16T21:24:37.559Z,4.67
2019-05-16T21:27:07.031Z,6.40
2019-05-16T21:29:36.912Z,7.90
2019-05-16T21:32:07.463Z,8.80
2019-05-16T21:34:37.192Z,6.75
2019-05-16T21:37:14.616Z,6.80
2019-05-16T21:39:37.817Z,10.13
2019-05-16T21:42:07.643Z,8.30
2019-05-16T21:44:37.546Z,7.65
2019-05-16T21:47:06.975Z,6.22
2019-05-16T21:49:37.004Z,7.08
2019-05-16T21:52:06.556Z,9.65
2019-05-16T21:54:36.732Z,12.55
2019-05-16T21:57:06.339Z,9.83
2019-05-16T21:59:37.532Z,11.05
2019-05-16T22:02:07.337Z,5.85
2019-05-16T22:04:36.954Z,9.10
2019-05-16T22:07:07.278Z,7.83
2019-05-16T22:09:37.182Z,8.65
2019-05-16T22:12:06.929Z,8.00
2019-05-16T22:14:41.164Z,12.23
2019-05-16T22:17:10.614Z,9.23
2019-05-16T22:19:40.087Z,14.38
2019-05-16T22:22:11.152Z,9.05
2019-05-16T22:24:40.874Z,10.80
2019-05-16T22:27:10.334Z,7.12
2019-05-16T22:29:39.792Z,11.18
2019-05-16T22:32:09.446Z,10.25
2019-05-16T22:34:38.935Z,10.72
2019-05-16T22:37:08.469Z,10.85
2019-05-16T22:39:37.952Z,9.90
2019-05-16T22:42:09.288Z,9.53
2019-05-16T22:44:38.553Z,8.08
2019-05-16T22:47:07.984Z,11.60
2019-05-16T22:49:37.425Z,10.18
2019-05-16T22:52:07.041Z,9.93
2019-05-16T22:54:37.154Z,11.65
2019-05-16T22:57:06.883Z,10.03
2019-05-16T22:59:36.428Z,12.18
2019-05-16T23:02:11.532Z,11.60
2019-05-16T23:04:39.390Z,12.82
2019-05-16T23:07:09.423Z,16.15
2019-05-16T23:09:38.874Z,10.35
2019-05-16T23:12:08.329Z,7.15
2019-05-16T23:14:37.795Z,14.18
2019-05-16T23:17:07.226Z,6.50
2019-05-16T23:19:36.872Z,9.13
2019-05-16T23:22:07.494Z,11.73
2019-05-16T23:24:37.526Z,11.05
2019-05-16T23:27:07.168Z,7.08
2019-05-16T23:29:36.893Z,12.53
2019-05-16T23:32:07.431Z,11.03
2019-05-16T23:34:37.444Z,11.85
2019-05-16T23:37:06.972Z,12.20
2019-05-16T23:39:37.879Z,13.83
2019-05-16T23:42:07.453Z,11.05
2019-05-16T23:44:36.897Z,15.55
2019-05-16T23:47:07.026Z,15.23
2019-05-16T23:49:36.857Z,13.50
2019-05-16T23:52:07.446Z,16.30
2019-05-16T23:54:37.098Z,13.98
2019-05-16T23:57:06.822Z,14.03
2019-05-16T23:59:36.868Z,15.75
